RESULTATS »

INSCRITS PRESENTATS ACABEN RETIRATS DESQUALIFICATS DIST. TRAM 1 DIST. TRAM 2 DIST. TRAM 3 TEMP. EXT TEMP. AIGUA
302 293 6 3 7 34 3 0 0

CLASSIFICACIÓ

MASCULÍ FEMENÍ CATEGORIES CLUBS (MASCULINA) CLUBS (FEMENINA) INDIVIDUALS GRUPS D'EDAT

LLOCDORSALNOMCLUBCAT.T.META| P.Tram 1 || P.Tram 2 |Km/hTEMPS| P.Tram 3 |PARC_1PARC_2
1 1940ANNA ROVIRA GARRIDOTEAM CALELLA TRIATHLONABF01:47:2313400:26:1015001:07:3930.1601:33:4915200:13:340:00:000:00:00
2 127ESTER HERNANDEZ CASAHUGAC.N. REUS PLOMSABF01:49:2019200:27:0616701:08:2329.8301:35:2918700:13:510:00:000:00:00
3 1909EULALIA CALVERAS AUGEC.T.S.J. ABADESSESV1F01:53:1318600:26:5824401:11:5828.3501:38:5623100:14:170:00:000:00:00
4 3546NATÀLIA REY CARRERATEAM CALELLA TRIATHLONABF01:54:1123600:27:5926201:12:3028.1401:40:2916500:13:420:00:000:00:00
5 1911JULIANA VILLASANTE DUEÑASTRIATLO BCN-TRIFORFUNSUB23F01:54:2528000:28:5622601:11:1828.6101:40:1422600:14:110:00:000:00:00
6 5RAQUEL DEL AGUILA BRAVOTRIATLO BCN-TRIFORFUNABF01:55:2731300:29:4022001:10:4028.8701:40:2029500:15:070:00:000:00:00
7 1976PILAR RUS GARCIAC.N. REUS PLOMSABF01:55:4522300:27:4128001:13:5727.5901:41:3821900:14:070:00:000:00:00
8 1905CAROLINA VALMAÑA PIC.N. CATALUNYAV1F01:57:4428800:29:0327101:13:2127.8101:42:2431100:15:200:00:000:00:00
9 1818MARTA CUSIDO USTRELLC.T. S.J. ABADESSESV1F01:58:5625100:28:1430301:15:5526.8701:44:0927000:14:470:00:000:00:00
10 1992MONTSE GALBANY FUSTEFASTTRIATLON CLUBV1F02:00:5931100:29:3931101:16:4226.6001:46:2126100:14:380:00:000:00:00
11 1814LAIA PI BOLTAC.N. CATALUNYASUB23F02:01:0129000:29:0431301:17:0026.4901:46:0428300:14:570:00:000:00:00
12 3521MONICA CRISOL SALASC.N. PRAT-TRIATLOABF02:01:0826500:28:3432501:18:1026.1001:46:4424300:14:240:00:000:00:00
13 2000LAIA GALI MONTIELC.T.S.J. ABADESSESABF02:01:1633500:30:0530601:16:1026.7801:46:1528600:15:010:00:000:00:00
14 4025RAQUEL GUTIÉRREZ ABADFASTTRIATLON CLUBABF02:01:2231200:29:3931901:17:3826.2801:47:1721300:14:050:00:000:00:00
15 1822CRISTINA PRAT DOTC.N. PRAT-TRIATLOABF02:03:0432500:29:5031701:17:3326.3101:47:2333700:15:410:00:000:00:00
16 1912MERCE ASENSIO MIGUELC.N. CATALUNYAV1F02:04:3733000:30:0134201:19:1525.7401:49:1631200:15:210:00:000:00:00
17 4043MAR PUIG GUALSC.N. MANRESAV1F02:05:1134400:30:1734901:19:4225.6001:49:5930200:15:120:00:000:00:00
18 4051CLARA SEGUES VIDALC.N. CATALUNYAABF02:06:4833100:30:0236501:21:2125.0801:51:2331900:15:250:00:000:00:00
19 3525GEMMA FARRE VILACLUB TRIATLO SABADELLABF02:07:1637300:31:2235701:20:1725.4101:51:3932900:15:370:00:000:00:00
20 3587NURIA BERTRAN I GRIFOLSDIAF TRIATLOABF02:07:2338000:31:2836001:20:2625.3601:51:5432500:15:290:00:000:00:00
21 46MARIA NAVIO FLORESC.N. PRAT-TRIATLOABF02:07:3638500:31:4934801:19:4025.6101:51:2936100:16:070:00:000:00:00
22 62MIREIA RODRIGUEZ CARREÑOC.N. TERRASSA-CICLES MOREABF02:08:1339700:32:1134401:19:2325.7001:51:3438900:16:390:00:000:00:00
23 1844SANDRA SUBIRANA PARERACLUB TRIATLO L´EIX DE NAVABF02:09:2541700:33:2134701:19:4025.6101:53:0137600:16:240:00:000:00:00
24 1948NEUS PICH CANESC.E.T. DISTANCEABF02:10:0540100:32:2836301:20:3425.3201:53:0239900:17:030:00:000:00:00
25 3547EIDER ESTIBARIZTRIATLO BCN-TRIFORFUNABF02:10:0939300:32:0537701:22:1424.8101:54:1934900:15:500:00:000:00:00
26 1970NURI LOZADA ESPÍCLUB NATACIO SITGESV1F02:13:3142800:33:5538201:22:2224.7701:56:1740800:17:140:00:000:00:00
27 4032VIRGINIA IZQUIERDO FERNANCERDANYOLA CHV1F02:15:0540500:32:4539601:25:0723.9701:57:5240700:17:130:00:000:00:00
28 28VIKY ROURA IGLESIASSBRV1F02:15:4343400:35:2138501:22:3224.7201:57:5342000:17:500:00:000:00:00
29 3523CLARA BOSCH COMASC.T.S.J. ABADESSESABF02:17:2040900:32:5641701:27:4323.2602:00:3939000:16:410:00:000:00:00
30 4012MARIA JORDÀ ESCODASBRV1F02:19:2840700:32:4742701:30:0322.6502:02:5038600:16:380:00:000:00:00
31 20MONSERRAT CLAVERO SANCHEZC.N. REUS PLOMSV3F02:20:5144100:36:2641201:26:5123.4902:03:1741600:17:340:00:000:00:00
32 1972ANTONIA VERA FERNANDEZC. TRI. GRANOLLERSV1F02:22:3741000:33:0243401:32:2822.0602:05:3040000:17:070:00:000:00:00
33 1885MAMEN ROMAN MARINC.N. TERRASSA-CICLES MOREABF02:25:3642300:33:4043601:33:2321.8502:07:0343300:18:330:00:000:00:00
34 1851MARTA SANCHEZ SALINASCLUB TRIATLO L´EIX DE NAVV1F02:31:3343300:35:0844001:37:5620.8302:13:0443000:18:290:00:000:00:00
35 3557ANNA PASCUAL PICHCLUB NATACIÓ BANYOLESV2F02:36:3844000:35:3744301:41:1420.1502:16:5144000:19:470:00:000:00:00






FEDERACIÓ CATALANA DE TRIATLÓ
SEU CENTRAL I CORRESPONDÈNCIA: Rambla Guipúscoa 23-25 2on-D · 08018 Barcelona · Tel / Fax : 93 307 93 35
ATENCIÓ AL PÚBLIC: Passeig Joan de Borbó, 93 (Club Natació Barcelona) · 08039 Barcelona · Tel / Fax : 93 307 93 32